Time;durP1;ratioP1;P1;durP2;ratioP2;P2;SDS_P1;SDS_P2;PMS_P1;PMS_P2;Temp;Humidity;BMP_temperature;BMP_pressure;BME280_temperature;BME280_humidity;BME280_pressure;Samples;Min_cycle;Max_cycle;Signal;HPM_P1;HPM_P2
2022/09/08 00:00:59;;;;;;;3.47;2.50;;;;;;;21.25;66.54;98501.00;5226876;28;20060;-70
2022/09/08 00:03:50;;;;;;;5.68;3.25;;;;;;;21.21;65.22;98504.38;5226762;28;20045;-70
2022/09/08 00:06:40;;;;;;;3.85;2.78;;;;;;;21.36;65.79;98518.34;5226442;28;20428;-70
2022/09/08 00:09:30;;;;;;;3.80;2.88;;;;;;;21.26;65.00;98524.22;5232160;28;20052;-70
2022/09/08 00:12:21;;;;;;;5.15;2.65;;;;;;;21.25;65.76;98521.75;5226099;28;20099;-70
2022/09/08 00:15:11;;;;;;;6.80;3.03;;;;;;;21.26;66.67;98528.81;5226555;28;20075;-70
2022/09/08 00:18:01;;;;;;;3.72;2.90;;;;;;;21.15;66.43;98522.25;5218995;28;20060;-70
2022/09/08 00:20:51;;;;;;;8.90;2.95;;;;;;;21.21;64.96;98501.66;5225703;28;20064;-72
2022/09/08 00:23:41;;;;;;;6.05;3.67;;;;;;;21.40;64.93;98503.34;5227547;28;20057;-72
2022/09/08 00:26:31;;;;;;;5.07;3.30;;;;;;;21.42;64.80;98495.03;5229415;28;20636;-72
2022/09/08 00:29:21;;;;;;;6.97;3.38;;;;;;;21.18;66.02;98499.41;5226270;28;20044;-72
2022/09/08 00:32:11;;;;;;;7.20;3.45;;;;;;;21.14;66.82;98498.22;5226483;28;20056;-70
2022/09/08 00:35:01;;;;;;;5.47;3.10;;;;;;;21.21;66.23;98504.38;5226193;28;20055;-70
2022/09/08 00:37:52;;;;;;;9.25;3.53;;;;;;;21.28;66.25;98516.72;5222854;28;20041;-69
2022/09/08 00:40:45;;;;;;;5.95;3.38;;;;;;;21.22;66.64;98514.09;5226475;28;20049;-72
2022/09/08 00:43:38;;;;;;;4.53;3.13;;;;;;;21.18;66.28;98529.06;5232507;28;20457;-70
2022/09/08 00:46:39;;;;;;;4.55;2.85;;;;;;;21.26;66.00;98529.63;5229678;28;20131;-70
2022/09/08 00:49:31;;;;;;;6.50;2.88;;;;;;;21.23;64.97;98518.47;5227113;28;20145;-70
2022/09/08 00:52:23;;;;;;;4.70;2.83;;;;;;;21.01;65.65;98489.22;5229030;28;20052;-70
2022/09/08 00:55:14;;;;;;;6.53;3.58;;;;;;;21.18;66.04;98519.13;5215767;28;20059;-70
2022/09/08 00:58:06;;;;;;;3.58;2.80;;;;;;;21.05;65.35;98506.59;5226556;28;20271;-70
2022/09/08 01:00:56;;;;;;;4.03;2.83;;;;;;;20.95;66.15;98494.69;5221504;28;20178;-70
2022/09/08 01:03:46;;;;;;;7.15;3.20;;;;;;;21.01;65.84;98516.19;5223859;28;20772;-70
2022/09/08 01:13:22;;;;;;;6.95;2.97;;;;;;;21.10;66.40;98562.56;5224907;28;20055;-70
2022/09/08 01:16:12;;;;;;;5.95;2.85;;;;;;;21.31;65.52;98551.31;5227435;28;20422;-70
2022/09/08 01:19:02;;;;;;;4.80;2.80;;;;;;;21.24;64.79;98555.97;5229169;28;20522;-70
2022/09/08 01:22:11;;;;;;;3.65;2.63;;;;;;;21.14;65.75;98552.16;5227132;28;20116;-70
2022/09/08 01:25:32;;;;;;;3.60;2.92;;;;;;;21.19;65.74;98552.28;5223300;28;20094;-70
2022/09/08 01:28:28;;;;;;;3.92;2.88;;;;;;;21.20;66.34;98548.56;5223698;28;20049;-70
2022/09/08 01:31:19;;;;;;;6.30;2.75;;;;;;;20.95;66.87;98525.16;5230907;28;20048;-70
2022/09/08 01:34:10;;;;;;;4.93;2.83;;;;;;;21.07;66.89;98549.50;5224994;28;20301;-70
2022/09/08 01:37:00;;;;;;;6.47;3.08;;;;;;;21.10;66.61;98549.06;5222096;28;20056;-70
2022/09/08 01:39:51;;;;;;;3.70;3.10;;;;;;;21.20;66.86;98543.16;5218452;28;20053;-70
2022/09/08 01:42:41;;;;;;;5.38;3.13;;;;;;;21.11;66.95;98542.63;5223252;28;20053;-70
2022/09/08 01:45:32;;;;;;;5.95;2.80;;;;;;;20.99;66.97;98533.59;5238386;28;20554;-70
2022/09/08 01:48:22;;;;;;;5.07;2.88;;;;;;;20.94;67.08;98549.63;5230365;28;20060;-70
2022/09/08 01:51:12;;;;;;;5.35;3.17;;;;;;;20.97;67.23;98539.25;5224329;28;20063;-70
2022/09/08 01:54:02;;;;;;;4.57;3.08;;;;;;;20.93;66.84;98535.34;5220262;28;20063;-70
2022/09/08 01:56:54;;;;;;;6.88;3.10;;;;;;;20.86;67.30;98519.25;5224201;28;20116;-70
2022/09/08 01:59:44;;;;;;;6.93;3.35;;;;;;;20.92;66.99;98516.69;5224742;28;20190;-70
2022/09/08 02:02:34;;;;;;;5.40;3.10;;;;;;;20.74;67.11;98488.66;5223257;28;20111;-70
2022/09/08 02:05:24;;;;;;;5.35;3.10;;;;;;;20.82;66.98;98509.09;5216377;28;20052;-70
2022/09/08 02:08:14;;;;;;;10.02;3.47;;;;;;;20.76;67.06;98505.44;5225106;28;20045;-70
2022/09/08 02:11:04;;;;;;;5.63;3.15;;;;;;;20.83;67.29;98505.38;5227710;28;20514;-70
2022/09/08 02:13:54;;;;;;;6.43;3.00;;;;;;;20.86;66.62;98481.50;5220357;28;20060;-70
2022/09/08 02:16:44;;;;;;;3.50;3.20;;;;;;;20.79;66.82;98475.34;5228769;28;20133;-70
2022/09/08 02:19:34;;;;;;;3.92;3.00;;;;;;;20.77;66.62;98488.22;5232175;28;20510;-70
2022/09/08 02:22:26;;;;;;;4.28;3.35;;;;;;;20.69;67.01;98480.41;5222423;28;20056;-70
2022/09/08 02:25:16;;;;;;;5.18;3.17;;;;;;;20.89;67.04;98477.53;5225523;28;20548;-70
2022/09/08 02:28:05;;;;;;;5.18;3.00;;;;;;;20.84;67.02;98482.78;5224918;28;20123;-70
2022/09/08 02:30:58;;;;;;;4.32;3.25;;;;;;;20.80;66.80;98476.19;5223918;28;20430;-70
2022/09/08 02:33:49;;;;;;;4.18;3.58;;;;;;;20.84;67.06;98477.38;5219935;28;20394;-70
2022/09/08 02:36:39;;;;;;;5.88;3.10;;;;;;;20.75;67.63;98484.09;5223798;28;20045;-70
2022/09/08 02:39:29;;;;;;;6.60;3.58;;;;;;;20.68;67.55;98462.63;5224878;28;20044;-70
2022/09/08 02:42:19;;;;;;;3.90;3.13;;;;;;;20.58;68.13;98460.41;5228128;28;20132;-70
2022/09/08 02:45:09;;;;;;;5.47;3.90;;;;;;;20.84;67.48;98462.03;5224927;28;20192;-70
2022/09/08 02:48:00;;;;;;;8.48;3.83;;;;;;;20.70;68.28;98470.50;5227408;28;20501;-70
2022/09/08 02:50:50;;;;;;;7.65;3.90;;;;;;;20.57;68.36;98471.44;5219090;28;20432;-70
2022/09/08 02:53:41;;;;;;;8.07;4.50;;;;;;;20.51;68.94;98470.44;5228069;28;20413;-70
2022/09/08 02:56:32;;;;;;;5.43;3.92;;;;;;;20.69;68.36;98466.94;5221544;28;20123;-70
2022/09/08 02:59:22;;;;;;;7.93;4.25;;;;;;;20.70;68.31;98465.09;5236552;28;20142;-72
2022/09/08 03:02:12;;;;;;;4.82;4.07;;;;;;;20.83;67.39;98465.78;5222634;28;20060;-70
2022/09/08 03:05:02;;;;;;;4.75;3.08;;;;;;;20.77;66.73;98460.47;5227407;28;20122;-70
2022/09/08 03:07:53;;;;;;;5.88;3.50;;;;;;;20.66;68.03;98462.00;5224540;28;20037;-70
2022/09/08 03:10:44;;;;;;;5.55;3.05;;;;;;;20.75;67.45;98457.97;5221517;28;20045;-70
2022/09/08 03:13:35;;;;;;;6.32;2.63;;;;;;;21.10;65.60;98460.94;5224038;28;20049;-70
2022/09/08 03:16:27;;;;;;;2.85;2.00;;;;;;;20.77;65.72;98442.44;5216607;28;20036;-70
2022/09/08 03:19:17;;;;;;;3.15;1.92;;;;;;;20.79;65.54;98461.88;5229274;28;20092;-70
2022/09/08 03:22:07;;;;;;;3.85;1.67;;;;;;;20.68;66.05;98470.69;5222625;28;20075;-70
2022/09/08 03:24:57;;;;;;;3.92;1.60;;;;;;;21.05;63.92;98470.72;5222273;28;20103;-70
2022/09/08 03:27:47;;;;;;;3.78;1.40;;;;;;;20.82;64.63;98468.69;5220803;28;20048;-70
2022/09/08 03:30:37;;;;;;;4.88;1.10;;;;;;;20.80;64.80;98466.22;5223543;28;20057;-70
2022/09/08 03:33:28;;;;;;;6.32;2.20;;;;;;;20.76;64.80;98462.34;5223396;28;20048;-70
2022/09/08 03:36:20;;;;;;;3.17;1.23;;;;;;;20.73;64.94;98464.63;5225201;28;20037;-70
2022/09/08 03:39:10;;;;;;;4.28;1.15;;;;;;;20.98;64.00;98467.28;5227251;28;20056;-70
2022/09/08 03:42:00;;;;;;;1.67;1.10;;;;;;;20.95;63.99;98465.03;5225905;28;20044;-70
2022/09/08 03:44:50;;;;;;;2.58;1.15;;;;;;;21.11;63.36;98470.66;5226449;28;20511;-70
2022/09/08 03:47:42;;;;;;;2.20;1.15;;;;;;;21.10;62.93;98468.19;5227131;28;20041;-70
2022/09/08 03:50:32;;;;;;;2.42;1.10;;;;;;;20.78;64.34;98467.50;5225766;28;20072;-69
2022/09/08 03:53:22;;;;;;;1.90;0.85;;;;;;;20.93;63.76;98459.88;5224515;28;20151;-69
2022/09/08 03:56:13;;;;;;;2.47;1.10;;;;;;;20.70;65.23;98462.41;5220044;28;20059;-69
2022/09/08 03:59:03;;;;;;;3.25;1.00;;;;;;;20.92;64.19;98463.59;5221741;28;20067;-69
2022/09/08 04:01:53;;;;;;;2.08;1.30;;;;;;;20.69;64.94;98461.56;5222488;28;20049;-69
2022/09/08 04:04:48;;;;;;;2.42;1.10;;;;;;;20.71;65.25;98472.13;5227036;28;20048;-69
2022/09/08 04:07:38;;;;;;;2.25;1.20;;;;;;;20.67;65.55;98468.25;5224629;28;20068;-70
2022/09/08 04:10:28;;;;;;;6.30;1.55;;;;;;;20.88;64.53;98467.81;5224969;28;20080;-72
2022/09/08 04:13:19;;;;;;;1.88;0.85;;;;;;;20.80;64.49;98479.69;5233214;28;20056;-70
2022/09/08 04:16:09;;;;;;;2.42;1.13;;;;;;;21.00;64.46;98471.41;5227197;28;20107;-70
2022/09/08 04:18:59;;;;;;;0.90;0.75;;;;;;;20.84;64.80;98472.00;5223120;28;20136;-72
2022/09/08 04:21:49;;;;;;;6.20;0.82;;;;;;;20.71;65.45;98464.03;5210334;28;20044;-70
2022/09/08 04:24:40;;;;;;;1.80;1.00;;;;;;;20.81;65.50;98465.19;5217845;28;20049;-70
2022/09/08 04:27:30;;;;;;;1.00;0.90;;;;;;;20.58;65.58;98473.88;5237435;22;20094;-71
2022/09/08 04:30:21;;;;;;;1.10;0.80;;;;;;;20.65;65.87;98471.94;5224177;28;20463;-71
2022/09/08 04:33:11;;;;;;;2.67;1.00;;;;;;;20.44;66.73;98477.72;5236058;28;20060;-72
2022/09/08 04:36:09;;;;;;;2.88;1.00;;;;;;;20.67;65.23;98460.97;5210705;28;20173;-71
2022/09/08 04:39:16;;;;;;;1.92;0.88;;;;;;;20.49;66.95;98477.03;5203328;28;20045;-72
2022/09/08 04:42:07;;;;;;;4.50;0.95;;;;;;;20.38;66.98;98483.97;5192869;28;20050;-71
2022/09/08 04:44:57;;;;;;;1.25;1.00;;;;;;;20.30;67.70;98477.00;5202815;28;20112;-72
2022/09/08 04:47:47;;;;;;;3.28;1.00;;;;;;;20.35;66.88;98460.19;5208496;28;20064;-71
2022/09/08 04:50:37;;;;;;;2.97;0.90;;;;;;;20.44;66.91;98483.09;5220020;28;20171;-72
2022/09/08 04:53:29;;;;;;;5.25;1.42;;;;;;;20.05;68.38;98484.22;5227091;28;20045;-71
2022/09/08 04:56:21;;;;;;;0.82;0.80;;;;;;;20.22;67.61;98476.44;5225271;28;20498;-71
2022/09/08 04:59:11;;;;;;;2.90;1.00;;;;;;;20.28;67.71;98484.47;5224773;28;20114;-71
2022/09/08 05:02:01;;;;;;;5.53;1.02;;;;;;;20.45;66.70;98483.94;5224683;28;20059;-71
2022/09/08 05:04:51;;;;;;;2.50;1.20;;;;;;;20.34;67.67;98488.16;5210519;28;20048;-71
2022/09/08 05:07:49;;;;;;;0.90;0.90;;;;;;;20.29;67.67;98485.28;5225108;28;20130;-71
2022/09/08 05:10:39;;;;;;;;;;;;;;;20.31;67.40;98497.50;5225404;28;20095;-71
2022/09/08 05:13:29;;;;;;;3.88;1.00;;;;;;;20.07;68.37;98477.59;5222997;28;19928;-70
2022/09/08 05:16:22;;;;;;;2.22;1.45;;;;;;;20.29;67.86;98496.88;5224892;28;20417;-71
2022/09/08 05:19:13;;;;;;;3.30;1.20;;;;;;;20.18;68.14;98505.66;5224679;28;20594;-74
2022/09/08 05:22:03;;;;;;;2.45;1.10;;;;;;;20.11;68.39;98504.88;5221447;28;20072;-72
2022/09/08 05:24:53;;;;;;;2.78;1.30;;;;;;;20.37;67.57;98514.66;5222522;28;20545;-72
2022/09/08 05:27:44;;;;;;;2.53;1.27;;;;;;;20.38;66.78;98502.81;5224513;28;20503;-71
2022/09/08 05:30:34;;;;;;;3.47;1.45;;;;;;;20.36;67.36;98523.75;5223899;28;20053;-70
2022/09/08 05:33:24;;;;;;;4.00;1.10;;;;;;;20.27;67.55;98511.63;5215039;28;20053;-72
2022/09/08 05:36:22;;;;;;;3.25;1.98;;;;;;;20.07;68.64;98534.09;5224754;28;20056;-71
2022/09/08 05:39:12;;;;;;;3.33;1.23;;;;;;;19.84;68.49;98541.88;5223746;28;20055;-71
2022/09/08 05:42:03;;;;;;;2.42;0.88;;;;;;;19.78;69.55;98550.81;5222961;28;20056;-72
2022/09/08 05:44:53;;;;;;;5.10;1.10;;;;;;;19.91;68.95;98548.06;5225524;28;20092;-70
2022/09/08 05:47:43;;;;;;;1.65;1.05;;;;;;;19.85;68.70;98565.06;5219205;28;20045;-72
2022/09/08 05:50:34;;;;;;;2.58;1.33;;;;;;;19.80;68.18;98564.84;5207418;28;20048;-72
2022/09/08 05:53:25;;;;;;;5.47;1.00;;;;;;;19.90;68.56;98571.44;5221257;28;20083;-73
2022/09/08 05:56:18;;;;;;;2.47;1.08;;;;;;;19.88;68.21;98568.13;5213891;28;20059;-71
2022/09/08 05:59:10;;;;;;;2.80;1.10;;;;;;;19.80;68.95;98575.63;5222931;28;20098;-75
2022/09/08 06:02:01;;;;;;;4.05;0.98;;;;;;;19.89;68.52;98579.72;5220121;28;20064;-74
2022/09/08 06:04:51;;;;;;;1.23;1.05;;;;;;;19.56;68.85;98574.44;5207120;28;20060;-74
2022/09/08 06:07:41;;;;;;;1.83;0.55;;;;;;;19.41;67.03;98588.16;5218144;28;20415;-72
2022/09/08 06:10:35;;;;;;;0.85;0.80;;;;;;;19.18;67.83;98596.66;5212835;28;20131;-71
2022/09/08 06:13:26;;;;;;;1.58;0.60;;;;;;;19.60;65.27;98600.72;5208047;28;20429;-71
2022/09/08 06:16:17;;;;;;;1.88;0.52;;;;;;;18.44;67.81;98606.53;5206236;28;20049;-70
2022/09/08 06:19:08;;;;;;;1.33;0.70;;;;;;;19.15;66.70;98611.34;5211437;28;20053;-73
2022/09/08 06:21:58;;;;;;;2.08;0.70;;;;;;;19.39;66.07;98601.78;5203715;28;20045;-70
2022/09/08 06:24:48;;;;;;;2.17;0.70;;;;;;;19.42;66.29;98608.59;5201445;28;20049;-70
2022/09/08 06:27:48;;;;;;;4.63;0.75;;;;;;;19.48;65.52;98608.59;5198387;28;20509;-70
2022/09/08 06:30:38;;;;;;;2.72;0.70;;;;;;;19.61;65.95;98609.59;5198868;28;20425;-70
2022/09/08 06:33:46;;;;;;;0.50;0.50;;;;;;;19.40;65.25;98605.28;5196754;28;20056;-72
2022/09/08 06:36:45;;;;;;;0.88;0.40;;;;;;;19.22;64.20;98601.41;5204011;28;20068;-71
2022/09/08 06:39:43;;;;;;;0.70;0.30;;;;;;;19.39;64.22;98590.22;5202113;28;21302;-70
2022/09/08 06:43:10;;;;;;;0.60;0.55;;;;;;;19.60;63.14;98594.50;5199837;28;20055;-72
2022/09/08 06:46:11;;;;;;;1.10;0.50;;;;;;;19.40;64.45;98600.78;5201149;28;20446;-71
2022/09/08 06:49:02;;;;;;;1.00;0.40;;;;;;;19.40;65.01;98602.59;5186458;28;20111;-71
2022/09/08 06:52:01;;;;;;;0.75;0.52;;;;;;;19.40;65.50;98611.53;5201241;28;20138;-70
2022/09/08 06:55:08;;;;;;;0.65;0.50;;;;;;;19.20;65.27;98608.88;5205674;28;20581;-70
2022/09/08 06:58:10;;;;;;;0.93;0.60;;;;;;;19.24;64.75;98620.84;5208344;28;20560;-69
2022/09/08 07:01:09;;;;;;;1.70;0.47;;;;;;;19.15;64.12;98608.66;5209062;28;20114;-73
2022/09/08 07:04:15;;;;;;;0.40;0.30;;;;;;;19.39;63.87;98598.28;5205467;28;20171;-71
2022/09/08 07:07:37;;;;;;;1.45;0.30;;;;;;;19.25;64.14;98601.00;5205045;28;20075;-71
2022/09/08 07:10:47;;;;;;;0.52;0.45;;;;;;;19.31;65.55;98611.94;5207387;28;20432;-70
2022/09/08 07:14:06;;;;;;;0.70;0.50;;;;;;;19.37;64.51;98620.00;5206211;28;20149;-71
2022/09/08 07:17:10;;;;;;;1.10;0.50;;;;;;;19.52;65.28;98622.44;5207164;28;20059;-69
2022/09/08 07:20:00;;;;;;;0.63;0.47;;;;;;;19.66;66.44;98629.47;5204598;28;20061;-70
2022/09/08 07:22:53;;;;;;;0.40;0.40;;;;;;;19.55;65.59;98632.78;5203001;28;20091;-70
2022/09/08 07:26:00;;;;;;;0.60;0.60;;;;;;;19.65;65.78;98627.81;5204245;28;20323;-71
2022/09/08 07:28:52;;;;;;;3.72;0.73;;;;;;;19.54;64.82;98625.75;5204713;28;20037;-72
2022/09/08 07:31:47;;;;;;;1.23;0.63;;;;;;;19.73;65.91;98620.56;5204880;28;20057;-70
2022/09/08 07:34:46;;;;;;;0.82;0.52;;;;;;;19.66;65.39;98632.16;5205019;28;20320;-71
2022/09/08 07:37:45;;;;;;;1.42;0.70;;;;;;;19.63;65.79;98627.19;5193579;28;20052;-70
2022/09/08 07:40:45;;;;;;;3.00;0.63;;;;;;;19.71;65.23;98624.28;5203479;28;20060;-71
2022/09/08 07:43:35;;;;;;;0.88;0.70;;;;;;;20.13;65.41;98635.53;5198421;28;20527;-70
2022/09/08 07:47:07;;;;;;;0.95;0.73;;;;;;;20.19;64.32;98650.78;5201444;28;20068;-70
2022/09/08 07:50:21;;;;;;;2.83;0.60;;;;;;;20.34;65.75;98657.78;5186978;28;20067;-69
2022/09/08 07:53:39;;;;;;;2.08;0.55;;;;;;;20.52;63.51;98662.47;5202252;28;20435;-70
2022/09/08 07:56:42;;;;;;;5.00;0.70;;;;;;;21.30;62.85;98660.25;5198413;28;20056;-70
2022/09/08 07:59:55;;;;;;;1.15;0.50;;;;;;;22.00;59.23;98654.56;5200834;28;20275;-71
2022/09/08 08:03:17;;;;;;;1.17;0.60;;;;;;;23.11;56.16;98657.00;5198368;28;20319;-71
2022/09/08 08:06:33;;;;;;;1.27;0.50;;;;;;;23.32;55.16;98656.47;5172696;28;20052;-70
2022/09/08 08:09:48;;;;;;;0.45;0.40;;;;;;;23.30;53.56;98658.56;5200038;28;20049;-71
2022/09/08 08:13:03;;;;;;;1.05;0.40;;;;;;;23.23;53.39;98665.97;5201874;28;20060;-70
2022/09/08 08:16:08;;;;;;;1.35;0.50;;;;;;;21.79;55.55;98672.03;5202135;28;20084;-70
2022/09/08 08:19:21;;;;;;;1.10;0.32;;;;;;;22.00;55.10;98675.34;5204815;28;20074;-70
2022/09/08 08:22:27;;;;;;;1.48;0.50;;;;;;;21.04;56.96;98682.84;5205871;28;20060;-70
2022/09/08 08:25:25;;;;;;;0.90;0.30;;;;;;;20.84;57.06;98677.59;5208696;28;20053;-70
2022/09/08 08:28:18;;;;;;;1.60;0.30;;;;;;;20.53;56.18;98691.03;5204292;28;20507;-70
2022/09/08 08:31:37;;;;;;;0.85;0.40;;;;;;;20.27;58.94;98681.22;5205945;28;20119;-70
2022/09/08 08:34:32;;;;;;;0.80;0.40;;;;;;;21.14;56.70;98678.84;5204083;28;20174;-70
2022/09/08 08:37:27;;;;;;;1.05;0.40;;;;;;;21.04;56.02;98698.22;5207087;28;20064;-70
2022/09/08 08:40:32;;;;;;;1.40;0.45;;;;;;;22.69;53.47;98695.69;5202545;28;20620;-70
2022/09/08 08:43:39;;;;;;;0.60;0.47;;;;;;;22.40;52.24;98689.22;5189486;28;20072;-70
2022/09/08 08:46:40;;;;;;;1.75;0.50;;;;;;;23.45;52.04;98688.69;5202548;28;21051;-71
2022/09/08 08:49:42;;;;;;;0.30;0.20;;;;;;;22.77;51.68;98696.41;5205877;28;20776;-71
2022/09/08 08:52:41;;;;;;;1.50;0.50;;;;;;;22.64;51.92;98698.22;5203135;28;20404;-71
2022/09/08 08:55:45;;;;;;;2.92;0.30;;;;;;;23.19;51.47;98699.97;5207287;28;20186;-71
2022/09/08 08:58:54;;;;;;;2.63;0.50;;;;;;;23.94;50.84;98701.16;5202209;28;20045;-70
2022/09/08 09:02:00;;;;;;;0.85;0.40;;;;;;;23.27;50.88;98696.06;5191649;28;20814;-71
2022/09/08 09:04:59;;;;;;;0.65;0.65;;;;;;;22.86;52.64;98695.84;5206475;28;20049;-71
2022/09/08 09:08:08;;;;;;;0.63;0.50;;;;;;;23.39;53.25;98699.63;5208792;28;20060;-70
2022/09/08 09:11:21;;;;;;;3.22;0.40;;;;;;;23.75;49.69;98706.72;5210709;28;20210;-71
2022/09/08 09:14:28;;;;;;;2.67;0.38;;;;;;;23.82;50.72;98707.44;5209935;28;20068;-71
2022/09/08 09:17:42;;;;;;;2.00;0.50;;;;;;;24.92;49.18;98715.63;5201025;28;20057;-72
2022/09/08 09:20:47;;;;;;;0.80;0.43;;;;;;;22.63;52.27;98714.69;5192870;28;20068;-71
2022/09/08 09:23:47;;;;;;;1.63;0.40;;;;;;;23.15;53.21;98712.31;5207797;28;20053;-70
2022/09/08 09:26:47;;;;;;;3.13;0.50;;;;;;;24.03;50.71;98718.69;5195352;28;20065;-71
2022/09/08 09:29:37;;;;;;;0.50;0.40;;;;;;;23.50;51.14;98716.94;5213873;28;20045;-71
2022/09/08 09:32:48;;;;;;;0.40;0.40;;;;;;;23.84;49.78;98716.16;5209422;28;20511;-70
2022/09/08 09:35:53;;;;;;;1.77;0.40;;;;;;;23.15;50.19;98715.00;5194910;28;20049;-70
2022/09/08 09:39:00;;;;;;;1.13;0.30;;;;;;;22.56;52.46;98712.06;5208099;28;20495;-70
2022/09/08 09:42:23;;;;;;;0.70;0.35;;;;;;;22.81;52.01;98713.81;5206932;28;20044;-71
2022/09/08 09:45:46;;;;;;;0.93;0.32;;;;;;;23.00;52.64;98701.91;5208427;28;20056;-70
2022/09/08 09:49:03;;;;;;;1.70;0.32;;;;;;;24.73;48.59;98704.97;5213176;28;20068;-71
2022/09/08 09:52:10;;;;;;;1.80;0.40;;;;;;;22.94;50.94;98709.06;5207846;28;20450;-71
2022/09/08 09:55:20;;;;;;;1.48;0.30;;;;;;;23.21;52.06;98714.91;5208655;28;20206;-71
2022/09/08 09:58:39;;;;;;;0.28;0.28;;;;;;;22.70;52.62;98691.91;5194366;28;20068;-72
2022/09/08 10:01:54;;;;;;;1.08;0.50;;;;;;;24.18;50.73;98708.22;5209132;28;20060;-72
2022/09/08 10:05:03;;;;;;;3.67;1.10;;;;;;;24.75;46.74;98713.69;5194617;28;20061;-71
2022/09/08 10:08:10;;;;;;;1.92;0.40;;;;;;;25.63;46.21;98705.16;5208108;28;20053;-72
2022/09/08 10:11:28;;;;;;;2.05;0.40;;;;;;;24.84;45.45;98695.16;5210755;28;21974;-70
2022/09/08 10:14:55;;;;;;;0.60;0.40;;;;;;;24.34;47.59;98685.78;5203603;28;20068;-72
2022/09/08 10:17:58;;;;;;;2.90;0.40;;;;;;;24.65;46.42;98683.69;5211644;28;20061;-73
2022/09/08 10:21:00;;;;;;;0.98;0.40;;;;;;;24.77;46.67;98686.34;5216065;28;20055;-72
2022/09/08 10:24:23;;;;;;;0.28;0.25;;;;;;;25.88;45.27;98681.09;5205051;28;20052;-69
2022/09/08 10:27:41;;;;;;;1.08;0.50;;;;;;;25.19;44.49;98681.41;5194499;28;20418;-67
2022/09/08 10:30:57;;;;;;;0.95;0.38;;;;;;;23.47;48.12;98690.34;5210554;28;20041;-74
2022/09/08 10:34:05;;;;;;;0.85;0.50;;;;;;;23.69;47.74;98686.00;5210795;28;20700;-72
2022/09/08 10:37:14;;;;;;;0.80;0.47;;;;;;;22.77;49.06;98686.41;5189971;28;20099;-70
2022/09/08 10:40:25;;;;;;;0.93;0.38;;;;;;;23.46;47.51;98686.81;5215498;28;20088;-70
2022/09/08 10:43:39;;;;;;;1.58;0.47;;;;;;;23.29;48.57;98693.97;5201306;28;20194;-69
2022/09/08 10:46:55;;;;;;;3.92;0.22;;;;;;;23.06;50.02;98695.56;5199295;28;20049;-69
2022/09/08 10:50:19;;;;;;;1.58;0.38;;;;;;;22.00;51.58;98705.03;5217586;28;20150;-71
2022/09/08 10:53:25;;;;;;;2.17;0.40;;;;;;;21.95;51.68;98704.88;5215006;28;20439;-71
2022/09/08 10:56:26;;;;;;;1.77;0.40;;;;;;;21.60;53.81;98712.72;5216681;28;20106;-70
2022/09/08 10:59:37;;;;;;;1.58;0.40;;;;;;;22.27;51.55;98697.47;5215348;28;20091;-71
2022/09/08 11:02:58;;;;;;;1.05;0.70;;;;;;;22.59;50.49;98697.28;5212532;28;20498;-70
2022/09/08 11:06:28;;;;;;;1.35;0.50;;;;;;;22.47;51.31;98702.63;5214960;28;20064;-71
2022/09/08 11:09:35;;;;;;;0.70;0.40;;;;;;;22.73;50.62;98696.88;5205512;28;20064;-70
2022/09/08 11:12:59;;;;;;;1.00;0.32;;;;;;;22.55;50.00;98699.63;5211587;28;20155;-72
2022/09/08 11:16:04;;;;;;;1.38;0.55;;;;;;;22.91;50.01;98700.56;5231350;28;20115;-72
2022/09/08 11:19:33;;;;;;;1.83;0.70;;;;;;;23.44;47.99;98689.75;5215076;28;20090;-71
2022/09/08 11:22:28;;;;;;;1.33;0.52;;;;;;;23.14;47.91;98691.72;5208712;28;20050;-69
2022/09/08 11:25:41;;;;;;;0.75;0.50;;;;;;;23.53;48.06;98695.63;5217443;28;20102;-70
2022/09/08 11:28:47;;;;;;;1.35;0.50;;;;;;;23.28;47.16;98665.25;5215935;28;20189;-69
2022/09/08 11:31:56;;;;;;;1.10;0.40;;;;;;;24.34;45.06;98674.94;5200576;28;20106;-69
2022/09/08 11:34:53;;;;;;;4.05;0.85;;;;;;;22.49;49.01;98684.31;5214908;28;20093;-69
2022/09/08 11:38:27;;;;;;;0.65;0.30;;;;;;;24.09;45.92;98693.38;5215360;28;20049;-70
2022/09/08 11:41:30;;;;;;;4.38;0.50;;;;;;;22.89;48.09;98689.16;5119318;28;20713;-69
2022/09/08 11:44:29;;;;;;;0.30;0.30;;;;;;;23.88;47.21;98689.41;5130722;28;20054;-71
2022/09/08 11:47:44;;;;;;;1.92;0.60;;;;;;;23.51;45.17;98694.22;5195891;28;20517;-70
2022/09/08 11:50:45;;;;;;;3.00;0.60;;;;;;;24.14;45.66;98693.50;5196036;28;20056;-70
2022/09/08 11:54:15;;;;;;;4.27;0.60;;;;;;;23.92;45.38;98696.81;5197756;28;20111;-70
2022/09/08 11:58:01;;;;;;;5.45;0.50;;;;;;;23.86;45.10;98684.22;5205912;28;20142;-70
2022/09/08 12:01:09;;;;;;;3.33;0.65;;;;;;;24.16;43.71;98688.66;5209419;28;20130;-70
2022/09/08 12:04:22;;;;;;;1.02;0.50;;;;;;;24.76;43.98;98681.97;5206245;28;20433;-70
2022/09/08 12:07:36;;;;;;;2.85;0.47;;;;;;;24.49;44.50;98681.75;5210137;28;20056;-70
2022/09/08 12:10:34;;;;;;;3.63;0.57;;;;;;;25.26;42.58;98692.91;5208987;28;20119;-70
2022/09/08 12:13:49;;;;;;;3.63;0.50;;;;;;;24.75;43.33;98678.44;5208106;28;20049;-70
2022/09/08 12:16:46;;;;;;;2.95;0.47;;;;;;;24.54;42.18;98676.44;5208103;28;20186;-70
2022/09/08 12:20:06;;;;;;;4.85;0.73;;;;;;;24.42;43.15;98684.59;5191336;28;20494;-70
2022/09/08 12:23:03;;;;;;;2.92;0.50;;;;;;;24.54;43.55;98679.97;5169839;28;20110;-71
2022/09/08 12:26:23;;;;;;;4.78;0.80;;;;;;;23.85;44.44;98677.19;5206358;28;20053;-70
2022/09/08 12:29:40;;;;;;;2.30;0.52;;;;;;;23.94;43.79;98677.66;5208568;28;20418;-71
2022/09/08 12:32:56;;;;;;;3.15;0.70;;;;;;;25.15;41.76;98666.69;5212019;28;20060;-70
2022/09/08 12:35:52;;;;;;;2.63;0.60;;;;;;;25.07;41.85;98672.50;5212293;28;20502;-70
2022/09/08 12:38:53;;;;;;;3.78;0.60;;;;;;;24.13;42.90;98672.88;5212366;28;20056;-70
2022/09/08 12:42:23;;;;;;;3.05;0.80;;;;;;;24.34;42.51;98685.78;5206582;28;20063;-70
2022/09/08 12:45:20;;;;;;;5.95;0.60;;;;;;;23.65;43.75;98680.22;5199637;28;20163;-70
2022/09/08 12:48:28;;;;;;;2.05;0.52;;;;;;;23.38;45.00;98666.34;5208743;28;20111;-71
2022/09/08 12:51:29;;;;;;;4.00;0.68;;;;;;;23.99;44.45;98647.94;5210383;28;20133;-70
2022/09/08 12:54:39;;;;;;;2.50;0.50;;;;;;;24.94;42.30;98664.69;5205789;28;20061;-70
2022/09/08 12:57:55;;;;;;;6.97;0.90;;;;;;;23.57;43.94;98664.31;5208988;28;20052;-70
2022/09/08 13:00:57;;;;;;;2.78;0.68;;;;;;;23.68;43.30;98660.03;5206949;28;20041;-70
2022/09/08 13:03:47;;;;;;;3.50;0.55;;;;;;;24.06;43.31;98672.19;5209115;28;20118;-71
2022/09/08 13:07:16;;;;;;;2.60;0.52;;;;;;;23.94;42.34;98660.56;5201152;28;20576;-70
2022/09/08 13:10:09;;;;;;;2.05;0.50;;;;;;;24.01;42.25;98664.78;5209607;28;20537;-70
2022/09/08 13:13:11;;;;;;;1.75;0.60;;;;;;;23.48;43.33;98660.34;5201294;28;20611;-70
2022/09/08 13:16:07;;;;;;;2.97;0.70;;;;;;;23.84;42.46;98663.84;5206195;28;20680;-71
2022/09/08 13:19:11;;;;;;;1.67;0.50;;;;;;;24.27;41.82;98670.72;5201165;28;20052;-70
2022/09/08 13:22:16;;;;;;;2.73;0.40;;;;;;;24.28;40.88;98654.22;5204310;28;20076;-71
2022/09/08 13:25:21;;;;;;;1.95;0.55;;;;;;;24.05;42.31;98659.72;5200723;28;20048;-70
2022/09/08 13:28:25;;;;;;;3.33;0.80;;;;;;;24.87;41.01;98661.28;5203540;28;20052;-70
2022/09/08 13:31:41;;;;;;;4.35;0.50;;;;;;;25.04;39.82;98648.59;5201670;28;20070;-71
2022/09/08 13:34:48;;;;;;;6.38;0.75;;;;;;;25.13;39.91;98635.44;5205247;28;20146;-71
2022/09/08 13:37:57;;;;;;;4.63;1.00;;;;;;;24.64;40.23;98637.84;5200024;28;20072;-70
2022/09/08 13:41:05;;;;;;;1.20;0.50;;;;;;;24.92;41.23;98643.22;5189994;28;20195;-70
2022/09/08 13:44:06;;;;;;;2.88;0.40;;;;;;;24.22;40.65;98633.50;5200738;28;20868;-70
2022/09/08 13:47:29;;;;;;;3.03;0.60;;;;;;;24.63;39.74;98647.84;5209739;28;20466;-72
2022/09/08 13:50:40;;;;;;;1.80;0.40;;;;;;;24.52;40.59;98641.44;5198675;28;20091;-71
2022/09/08 13:53:48;;;;;;;7.22;0.80;;;;;;;25.04;41.51;98654.00;5201329;28;20620;-70
2022/09/08 13:57:23;;;;;;;3.08;0.57;;;;;;;24.59;39.98;98644.81;5180687;28;20534;-70
2022/09/08 14:00:17;;;;;;;2.58;0.57;;;;;;;24.88;40.32;98644.78;5200466;28;20049;-71
2022/09/08 14:03:09;;;;;;;1.05;0.40;;;;;;;25.46;39.07;98640.00;5198507;28;20057;-70
2022/09/08 14:06:00;;;;;;;2.25;0.70;;;;;;;25.51;39.02;98634.69;5198041;28;20644;-70
2022/09/08 14:08:58;;;;;;;2.85;0.50;;;;;;;25.46;39.70;98645.44;5201110;28;20510;-71
2022/09/08 14:12:24;;;;;;;4.00;0.68;;;;;;;24.71;40.54;98638.53;5200956;28;20049;-71
2022/09/08 14:15:28;;;;;;;3.50;0.75;;;;;;;24.91;40.80;98643.47;5181668;28;20061;-71